Welcome to Northern Hawkes Bay. New Zealand.
PWS Header
      nz Flag



Hit Counter


W3C Valid W3C Valid logo


    Wairoa

Select any of the Stations below to visit their websites.










Historic Data from Weather Underground
Select the location of interest below. Wairoa is the default. Please have patience, this Data is slow to load in.
Northern Hawkes Bay Historical Data
Daily Summary for April 1, 2017 Units:  Metric    English   Both
« Previous Day
Next Day »
Daily Weekly Monthly Yearly Custom
  High: Low: Average:
Temperature: 29.1 °C 14.5 °C 19.5 °C
Dew Point: 18.1 °C 12.4 °C 15.4 °C
Humidity: 99% 47% 80%
Wind Speed: 18.3km/h 0.0km/h 5.9km/h
Wind Gust: 30.6km/h - -
Wind- - WNW
Pressure: 1018.2 hPa 1015.1 hPa -
Precipitation: 0.0 mm    
Historical Graphs
 
 
Tabular Data for April 1, 2017
Time Temperature Dew Point Pressure Wind Wind Speed Wind Gust Humidity Rainfall Rate (Hourly) solar
00:03 21.2 °C 17.4 °C 1016.8 hPa SW 3.5 km/h 12.2 km/h 79% 0.0 mm 139 W/m2
00:09 21.2 °C 17.8 °C 1017.2 hPa SSW 11.1 km/h 13.4 km/h 81% 0.0 mm 145 W/m2
00:15 21.0 °C 17.8 °C 1017.2 hPa SW 9.7 km/h 13.4 km/h 82% 0.0 mm 210 W/m2
00:21 21.0 °C 17.8 °C 1016.8 hPa SW 7.2 km/h 13.4 km/h 82% 0.0 mm 138 W/m2
00:27 20.8 °C 17.8 °C 1016.8 hPa Calm   14.8 km/h 83% 0.0 mm 131 W/m2
00:33 20.6 °C 17.8 °C 1017.2 hPa SSW 7.2 km/h 14.8 km/h 84% 0.0 mm 109 W/m2
00:40 20.3 °C 17.7 °C 1017.2 hPa SW 9.7 km/h 14.8 km/h 85% 0.0 mm 94 W/m2
00:45 20.1 °C 17.5 °C 1016.8 hPa SW 9.7 km/h 14.8 km/h 85% 0.0 mm 82 W/m2
00:51 19.9 °C 17.7 °C 1017.2 hPa SW 5.0 km/h 13.4 km/h 87% 0.0 mm 69 W/m2
00:57 19.7 °C 17.7 °C 1017.2 hPa SW 3.5 km/h 9.7 km/h 88% 0.0 mm 58 W/m2
01:03 19.6 °C 17.8 °C 1017.2 hPa SW 6.1 km/h 9.7 km/h 89% 0.0 mm 49 W/m2
01:09 19.4 °C 17.7 °C 1017.2 hPa SW 9.7 km/h 12.2 km/h 90% 0.0 mm 42 W/m2
01:15 19.3 °C 17.6 °C 1017.2 hPa SW 8.7 km/h 14.8 km/h 90% 0.0 mm 36 W/m2
01:21 19.2 °C 17.7 °C 1017.2 hPa SSW 6.1 km/h 13.4 km/h 91% 0.0 mm 31 W/m2
01:27 19.2 °C 17.9 °C 1017.2 hPa Calm   9.7 km/h 92% 0.0 mm 25 W/m2
01:33 19.2 °C 17.9 °C 1017.2 hPa Calm     92% 0.0 mm 18 W/m2
01:39 19.1 °C 17.8 °C 1017.2 hPa Calm     92% 0.0 mm 15 W/m2
01:45 19.4 °C 18.1 °C 1017.2 hPa Calm     92% 0.0 mm 14 W/m2
01:51 19.1 °C 17.8 °C 1017.2 hPa Calm   7.2 km/h 92% 0.0 mm 7 W/m2
01:57 19.0 °C 17.7 °C 1017.5 hPa Calm   6.1 km/h 92% 0.0 mm 4 W/m2
02:03 18.7 °C 17.6 °C 1017.5 hPa Calm     93% 0.0 mm 0 W/m2
02:09 18.6 °C 17.6 °C 1017.5 hPa Calm   5.0 km/h 94% 0.0 mm 0 W/m2
02:15 18.5 °C 17.7 °C 1017.5 hPa Calm   5.0 km/h 95% 0.0 mm 0 W/m2
02:21 18.4 °C 17.6 °C 1017.2 hPa Calm     95% 0.0 mm 0 W/m2
02:27 18.3 °C 17.5 °C 1017.5 hPa Calm     95% 0.0 mm 0 W/m2
02:33 18.2 °C 17.4 °C 1017.5 hPa Calm     95% 0.0 mm 0 W/m2
02:39 18.0 °C 17.2 °C 1017.8 hPa Calm     95% 0.0 mm 0 W/m2
02:45 17.8 °C 16.8 °C 1017.8 hPa Calm     94% 0.0 mm 0 W/m2
02:51 17.7 °C 16.7 °C 1017.8 hPa Calm     94% 0.0 mm 0 W/m2
02:57 17.6 °C 16.6 °C 1017.5 hPa Calm     94% 0.0 mm 0 W/m2
03:03 17.6 °C 16.6 °C 1017.5 hPa Calm     94% 0.0 mm 0 W/m2
03:09 17.5 °C 16.7 °C 1017.5 hPa Calm     95% 0.0 mm 0 W/m2
03:15 17.4 °C 16.6 °C 1017.8 hPa Calm     95% 0.0 mm 0 W/m2
03:21 17.3 °C 16.5 °C 1017.8 hPa Calm     95% 0.0 mm 0 W/m2
03:27 17.1 °C 16.3 °C 1017.8 hPa Calm     95% 0.0 mm 0 W/m2
03:33 16.9 °C 16.3 °C 1017.8 hPa Calm     96% 0.0 mm 0 W/m2
03:39 17.0 °C 16.2 °C 1017.8 hPa Calm     95% 0.0 mm 0 W/m2
03:45 16.9 °C 16.3 °C 1018.2 hPa Calm     96% 0.0 mm 0 W/m2
03:51 16.9 °C 16.3 °C 1017.8 hPa Calm     96% 0.0 mm 0 W/m2
03:57 16.8 °C 16.3 °C 1018.2 hPa Calm     97% 0.0 mm 0 W/m2
04:03 16.7 °C 16.2 °C 1018.2 hPa Calm     97% 0.0 mm 0 W/m2
04:09 16.6 °C 16.1 °C 1018.2 hPa Calm     97% 0.0 mm 0 W/m2
04:15 16.7 °C 16.2 °C 1018.2 hPa Calm     97% 0.0 mm 0 W/m2
04:21 16.6 °C 16.1 °C 1018.2 hPa Calm     97% 0.0 mm 0 W/m2
04:27 16.5 °C 16.2 °C 1018.2 hPa Calm     98% 0.0 mm 0 W/m2
04:33 16.4 °C 16.1 °C 1018.2 hPa Calm     98% 0.0 mm 0 W/m2
04:41 16.3 °C 16.0 °C 1018.2 hPa Calm     98% 0.0 mm 0 W/m2
04:47 16.2 °C 15.9 °C 1018.2 hPa Calm     98% 0.0 mm 0 W/m2
04:59 16.2 °C 15.9 °C 1018.2 hPa Calm     98% 0.0 mm 0 W/m2
05:05 16.1 °C 15.8 °C 1018.2 hPa Calm     98% 0.0 mm 0 W/m2
05:11 16.0 °C 15.7 °C 1018.2 hPa Calm     98% 0.0 mm 0 W/m2
05:17 15.8 °C 15.7 °C 1018.2 hPa Calm     99% 0.0 mm 0 W/m2
05:23 15.8 °C 15.7 °C 1017.8 hPa Calm     99% 0.0 mm 0 W/m2
05:29 15.7 °C 15.6 °C 1018.2 hPa Calm     99% 0.0 mm 0 W/m2
05:35 15.7 °C 15.6 °C 1018.2 hPa Calm     99% 0.0 mm 0 W/m2
05:41 15.6 °C 15.4 °C 1017.8 hPa Calm     99% 0.0 mm 0 W/m2
05:47 15.6 °C 15.4 °C 1018.2 hPa Calm     99% 0.0 mm 0 W/m2
05:53 15.6 °C 15.4 °C 1018.2 hPa Calm     99% 0.0 mm 0 W/m2
05:59 15.5 °C 15.3 °C 1017.8 hPa Calm     99% 0.0 mm 0 W/m2
06:05 15.5 °C 15.3 °C 1017.8 hPa Calm     99% 0.0 mm 0 W/m2
06:11 15.5 °C 15.3 °C 1017.8 hPa Calm     99% 0.0 mm 0 W/m2
06:17 15.4 °C 15.3 °C 1017.8 hPa Calm     99% 0.0 mm 0 W/m2
06:23 15.5 °C 15.3 °C 1017.8 hPa Calm     99% 0.0 mm 0 W/m2
06:29 15.1 °C 14.9 °C 1017.8 hPa Calm     99% 0.0 mm 0 W/m2
06:35 14.9 °C 14.8 °C 1017.8 hPa Calm     99% 0.0 mm 0 W/m2
06:41 15.0 °C 14.8 °C 1017.8 hPa Calm     99% 0.0 mm 0 W/m2
06:47 15.3 °C 15.2 °C 1017.8 hPa Calm     99% 0.0 mm 0 W/m2
06:53 15.0 °C 14.8 °C 1017.8 hPa NW 1.1 km/h 7.2 km/h 99% 0.0 mm 0 W/m2
06:59 15.2 °C 15.1 °C 1017.5 hPa NW 5.0 km/h 9.7 km/h 99% 0.0 mm 0 W/m2
07:05 15.0 °C 14.8 °C 1017.5 hPa Calm   8.7 km/h 99% 0.0 mm 0 W/m2
07:11 14.9 °C 14.8 °C 1017.5 hPa WNW 3.5 km/h 7.2 km/h 99% 0.0 mm 0 W/m2
07:17 14.9 °C 14.8 °C 1017.2 hPa NW 5.0 km/h 11.1 km/h 99% 0.0 mm 0 W/m2
07:23 15.0 °C 14.8 °C 1017.2 hPa NNW 5.0 km/h 12.2 km/h 99% 0.0 mm 0 W/m2
07:29 15.2 °C 15.1 °C 1017.2 hPa NNW 3.5 km/h 9.7 km/h 99% 0.0 mm 0 W/m2
07:35 15.6 °C 15.4 °C 1017.2 hPa NNW 3.5 km/h 9.7 km/h 99% 0.0 mm 0 W/m2
07:41 15.2 °C 15.1 °C 1017.2 hPa NNW 6.1 km/h 12.2 km/h 99% 0.0 mm 0 W/m2
07:47 15.1 °C 14.9 °C 1017.2 hPa NNW 7.2 km/h 12.2 km/h 99% 0.0 mm 0 W/m2
07:53 15.2 °C 15.1 °C 1016.8 hPa NNW 5.0 km/h 12.2 km/h 99% 0.0 mm 0 W/m2
07:59 15.4 °C 15.3 °C 1017.2 hPa NNW 1.1 km/h 12.2 km/h 99% 0.0 mm 0 W/m2
08:05 15.0 °C 14.8 °C 1017.2 hPa Calm   9.7 km/h 99% 0.0 mm 0 W/m2
08:11 15.0 °C 14.8 °C 1016.8 hPa NNW 1.1 km/h 7.2 km/h 99% 0.0 mm 0 W/m2
08:17 14.9 °C 14.8 °C 1016.8 hPa NNW 3.5 km/h 12.2 km/h 99% 0.0 mm 0 W/m2
08:23 14.9 °C 14.8 °C 1016.8 hPa Calm   12.2 km/h 99% 0.0 mm 0 W/m2
08:29 14.8 °C 14.7 °C 1016.8 hPa NNW 3.5 km/h 11.1 km/h 99% 0.0 mm 0 W/m2
08:35 15.0 °C 14.8 °C 1016.8 hPa North 3.5 km/h 12.2 km/h 99% 0.0 mm 0 W/m2
08:41 15.1 °C 14.9 °C 1016.8 hPa North 6.1 km/h 15.8 km/h 99% 0.0 mm 0 W/m2
08:47 15.2 °C 15.1 °C 1017.2 hPa North 12.2 km/h 18.3 km/h 99% 0.0 mm 0 W/m2
08:53 15.3 °C 15.2 °C 1016.8 hPa NNW 8.7 km/h 19.5 km/h 99% 0.0 mm 0 W/m2
08:59 14.9 °C 14.8 °C 1016.8 hPa NNW 7.2 km/h 17.2 km/h 99% 0.0 mm 0 W/m2
09:05 15.0 °C 14.8 °C 1016.8 hPa NNW 6.1 km/h 13.4 km/h 99% 0.0 mm 0 W/m2
09:11 15.5 °C 15.3 °C 1016.8 hPa NNW 6.1 km/h 13.4 km/h 99% 0.0 mm 0 W/m2
09:17 15.1 °C 14.9 °C 1016.5 hPa NW 7.2 km/h 13.4 km/h 99% 0.0 mm 0 W/m2
09:23 15.4 °C 15.3 °C 1016.5 hPa NW 9.7 km/h 13.4 km/h 99% 0.0 mm 0 W/m2
09:29 15.2 °C 15.1 °C 1016.5 hPa NW 8.7 km/h 17.2 km/h 99% 0.0 mm 0 W/m2
09:35 15.0 °C 14.8 °C 1016.8 hPa NW 9.7 km/h 17.2 km/h 99% 0.0 mm 0 W/m2
09:41 15.1 °C 14.9 °C 1016.5 hPa NNW 9.7 km/h 15.8 km/h 99% 0.0 mm 0 W/m2
09:47 15.3 °C 15.2 °C 1016.5 hPa NNW 13.4 km/h 18.3 km/h 99% 0.0 mm 0 W/m2
09:53 15.3 °C 15.2 °C 1016.5 hPa NNW 11.1 km/h 18.3 km/h 99% 0.0 mm 0 W/m2
09:59 15.6 °C 15.1 °C 1016.5 hPa NNW 13.4 km/h 19.5 km/h 97% 0.0 mm 0 W/m2
10:05 15.6 °C 14.8 °C 1016.1 hPa NNW 9.7 km/h 19.5 km/h 95% 0.0 mm 0 W/m2
10:11 15.3 °C 14.5 °C 1016.1 hPa NNW 9.7 km/h 19.5 km/h 95% 0.0 mm 0 W/m2
10:17 15.1 °C 14.3 °C 1016.1 hPa NNW 8.7 km/h 19.5 km/h 95% 0.0 mm 0 W/m2
10:23 14.8 °C 14.2 °C 1016.1 hPa NNW 11.1 km/h 19.5 km/h 96% 0.0 mm 0 W/m2
10:29 14.7 °C 14.1 °C 1016.1 hPa NNW 8.7 km/h 19.5 km/h 96% 0.0 mm 0 W/m2
10:35 14.6 °C 14.0 °C 1016.1 hPa NNW 9.7 km/h 19.5 km/h 96% 0.0 mm 0 W/m2
10:41 14.7 °C 14.1 °C 1016.1 hPa NNW 9.7 km/h 19.5 km/h 96% 0.0 mm 0 W/m2
10:47 14.9 °C 14.3 °C 1016.1 hPa NNW 11.1 km/h 19.5 km/h 96% 0.0 mm 0 W/m2
10:53 15.0 °C 14.1 °C 1016.1 hPa NNW 9.7 km/h 19.5 km/h 94% 0.0 mm 0 W/m2
10:59 15.1 °C 14.2 °C 1016.1 hPa NNW 8.7 km/h 19.5 km/h 94% 0.0 mm 0 W/m2
11:05 15.1 °C 14.0 °C 1016.1 hPa North 3.5 km/h 19.5 km/h 93% 0.0 mm 0 W/m2
11:11 15.1 °C 14.0 °C 1016.1 hPa Calm   13.4 km/h 93% 0.0 mm 0 W/m2
11:17 15.2 °C 13.9 °C 1016.1 hPa NNW 5.0 km/h 11.1 km/h 92% 0.0 mm 0 W/m2
11:23 15.7 °C 14.2 °C 1016.1 hPa NNW 7.2 km/h 14.8 km/h 91% 0.0 mm 0 W/m2
11:29 15.1 °C 13.5 °C 1016.1 hPa NNW 8.7 km/h 14.8 km/h 90% 0.0 mm 0 W/m2
11:35 15.1 °C 13.5 °C 1016.1 hPa NNW 3.5 km/h 14.8 km/h 90% 0.0 mm 0 W/m2
11:41 15.1 °C 13.5 °C 1016.1 hPa NNW 5.0 km/h 12.2 km/h 90% 0.0 mm 0 W/m2
11:47 15.1 °C 13.5 °C 1016.1 hPa NNW 2.6 km/h 12.2 km/h 90% 0.0 mm 0 W/m2
11:53 15.2 °C 13.4 °C 1016.1 hPa North 5.0 km/h 9.7 km/h 89% 0.0 mm 0 W/m2
11:59 15.4 °C 13.4 °C 1016.1 hPa NNW 3.5 km/h 11.1 km/h 88% 0.0 mm 0 W/m2
12:05 15.5 °C 13.3 °C 1016.1 hPa NW 2.6 km/h 12.2 km/h 87% 0.0 mm 0 W/m2
12:11 15.5 °C 13.2 °C 1016.1 hPa NW 3.5 km/h 12.2 km/h 86% 0.0 mm 0 W/m2
12:17 15.6 °C 13.3 °C 1016.1 hPa NNW 8.7 km/h 14.8 km/h 86% 0.0 mm 0 W/m2
12:23 15.4 °C 13.1 °C 1016.1 hPa NNW 7.2 km/h 14.8 km/h 86% 0.0 mm 0 W/m2
12:29 15.5 °C 13.2 °C 1016.1 hPa North 6.1 km/h 14.8 km/h 86% 0.0 mm 0 W/m2
12:35 15.4 °C 13.1 °C 1016.1 hPa NNW 2.6 km/h 14.8 km/h 86% 0.0 mm 0 W/m2
12:41 15.4 °C 13.1 °C 1016.1 hPa Calm   9.7 km/h 86% 0.0 mm 0 W/m2
12:47 15.3 °C 13.0 °C 1016.1 hPa NW 3.5 km/h 9.7 km/h 86% 0.0 mm 0 W/m2
12:53 15.1 °C 12.9 °C 1016.1 hPa NNW 7.2 km/h 11.1 km/h 87% 0.0 mm 0 W/m2
12:59 15.1 °C 13.1 °C 1016.1 hPa NNW 6.1 km/h 12.2 km/h 88% 0.0 mm 0 W/m2
13:05 14.9 °C 13.1 °C 1016.1 hPa Calm   9.7 km/h 89% 0.0 mm 0 W/m2
13:11 15.1 °C 13.3 °C 1016.1 hPa NW 5.0 km/h 8.7 km/h 89% 0.0 mm 0 W/m2
13:17 14.7 °C 13.1 °C 1016.1 hPa NNW 2.6 km/h 8.7 km/h 90% 0.0 mm 0 W/m2
13:23 14.7 °C 13.3 °C 1016.1 hPa Calm   6.1 km/h 91% 0.0 mm 0 W/m2
13:29 14.6 °C 13.2 °C 1016.1 hPa Calm     91% 0.0 mm 0 W/m2
13:35 14.7 °C 13.3 °C 1016.1 hPa North 1.1 km/h 6.1 km/h 91% 0.0 mm 0 W/m2
13:41 14.6 °C 13.2 °C 1016.1 hPa North 1.1 km/h 12.2 km/h 91% 0.0 mm 0 W/m2
13:47 14.6 °C 13.2 °C 1016.1 hPa NNW 6.1 km/h 12.2 km/h 91% 0.0 mm 0 W/m2
13:53 14.8 °C 13.2 °C 1016.1 hPa NNW 8.7 km/h 14.8 km/h 90% 0.0 mm 0 W/m2
13:59 14.8 °C 13.2 °C 1016.1 hPa North 9.7 km/h 18.3 km/h 90% 0.0 mm 0 W/m2
14:05 15.0 °C 13.1 °C 1016.1 hPa NNW 11.1 km/h 19.5 km/h 88% 0.0 mm 0 W/m2
14:11 14.9 °C 12.9 °C 1016.5 hPa NW 12.2 km/h 19.5 km/h 88% 0.0 mm 0 W/m2
14:17 15.1 °C 12.9 °C 1016.5 hPa NNW 9.7 km/h 18.3 km/h 87% 0.0 mm 0 W/m2
14:23 15.3 °C 12.8 °C 1016.1 hPa NNW 12.2 km/h 17.2 km/h 85% 0.0 mm 0 W/m2
14:29 15.0 °C 12.7 °C 1016.5 hPa NNW 8.7 km/h 18.3 km/h 86% 0.0 mm 2 W/m2
14:35 14.9 °C 12.9 °C 1016.5 hPa NNW 8.7 km/h 19.5 km/h 88% 0.0 mm 5 W/m2
14:41 14.9 °C 12.9 °C 1016.5 hPa NNW 8.7 km/h 19.5 km/h 88% 0.0 mm 8 W/m2
14:47 14.5 °C 12.6 °C 1016.5 hPa NNW 14.8 km/h 18.3 km/h 88% 0.0 mm 12 W/m2
14:53 15.0 °C 12.8 °C 1016.8 hPa North 9.7 km/h 18.3 km/h 87% 0.0 mm 14 W/m2
14:59 14.5 °C 12.4 °C 1016.5 hPa North 11.1 km/h 18.3 km/h 87% 0.0 mm 20 W/m2
15:05 15.2 °C 12.9 °C 1016.5 hPa NW 11.1 km/h 19.5 km/h 86% 0.0 mm 28 W/m2
15:11 15.9 °C 13.4 °C 1016.8 hPa NNW 7.2 km/h 19.5 km/h 85% 0.0 mm 49 W/m2
15:17 15.5 °C 13.0 °C 1016.8 hPa NNW 8.7 km/h 18.3 km/h 85% 0.0 mm 96 W/m2
15:23 15.7 °C 13.2 °C 1016.8 hPa NNW 6.1 km/h 18.3 km/h 85% 0.0 mm 160 W/m2
15:29 16.1 °C 13.2 °C 1016.8 hPa NNW 8.7 km/h 14.8 km/h 83% 0.0 mm 154 W/m2
15:35 16.4 °C 13.5 °C 1016.8 hPa NNW 1.1 km/h 13.4 km/h 83% 0.0 mm 155 W/m2
15:41 17.0 °C 13.7 °C 1017.2 hPa North 3.5 km/h 12.2 km/h 81% 0.0 mm 137 W/m2
15:47 17.1 °C 13.4 °C 1017.2 hPa NNW 2.6 km/h 12.2 km/h 79% 0.0 mm 166 W/m2
15:53 17.5 °C 13.8 °C 1017.5 hPa NNW 1.1 km/h 12.2 km/h 79% 0.0 mm 165 W/m2
15:59 17.6 °C 13.6 °C 1017.5 hPa NNW 1.1 km/h 12.2 km/h 77% 0.0 mm 184 W/m2
16:05 18.2 °C 13.9 °C 1017.5 hPa NNW 2.6 km/h 8.7 km/h 76% 0.0 mm 228 W/m2
16:11 19.1 °C 14.6 °C 1017.5 hPa NNW 5.0 km/h 9.7 km/h 75% 0.0 mm 291 W/m2
16:17 19.5 °C 14.8 °C 1017.2 hPa NNW 3.5 km/h 9.7 km/h 74% 0.0 mm 311 W/m2
16:23 20.3 °C 14.7 °C 1017.2 hPa NNE 3.5 km/h 9.7 km/h 70% 0.0 mm 329 W/m2
16:29 20.7 °C 14.8 °C 1017.2 hPa North 2.6 km/h 9.7 km/h 69% 0.0 mm 339 W/m2
16:35 21.3 °C 14.9 °C 1017.5 hPa North 1.1 km/h 8.7 km/h 67% 0.0 mm 336 W/m2
16:41 21.8 °C 14.9 °C 1017.2 hPa North 2.6 km/h 8.7 km/h 65% 0.0 mm 356 W/m2
16:47 22.0 °C 14.7 °C 1017.2 hPa North 6.1 km/h 14.8 km/h 63% 0.0 mm 343 W/m2
16:53 21.8 °C 14.9 °C 1017.2 hPa NNE 9.7 km/h 15.8 km/h 65% 0.0 mm 225 W/m2
16:59 21.3 °C 14.7 °C 1016.8 hPa North 6.1 km/h 19.5 km/h 66% 0.0 mm 227 W/m2
17:05 21.1 °C 14.7 °C 1017.2 hPa North 9.7 km/h 19.5 km/h 67% 0.0 mm 222 W/m2
17:11 20.9 °C 15.0 °C 1017.2 hPa NNE 8.7 km/h 18.3 km/h 69% 0.0 mm 151 W/m2
17:17 20.5 °C 15.1 °C 1016.8 hPa North 8.7 km/h 19.5 km/h 71% 0.0 mm 141 W/m2
17:23 20.3 °C 15.3 °C 1016.8 hPa North 7.2 km/h 19.5 km/h 73% 0.0 mm 206 W/m2
17:29 20.5 °C 15.5 °C 1016.8 hPa NNW 5.0 km/h 15.8 km/h 73% 0.0 mm 178 W/m2
17:35 20.5 °C 15.7 °C 1016.8 hPa NNW 8.7 km/h 18.3 km/h 74% 0.0 mm 159 W/m2
17:41 20.5 °C 15.7 °C 1016.5 hPa North 9.7 km/h 15.8 km/h 74% 0.0 mm 146 W/m2
17:47 20.7 °C 15.5 °C 1016.8 hPa North 7.2 km/h 15.8 km/h 72% 0.0 mm 216 W/m2
17:53 21.2 °C 15.3 °C 1016.8 hPa North 6.1 km/h 15.8 km/h 69% 0.0 mm 227 W/m2
17:59 22.7 °C 15.8 °C 1016.8 hPa North 3.5 km/h 14.8 km/h 65% 0.0 mm 209 W/m2
18:05 23.0 °C 15.3 °C 1016.8 hPa North 9.7 km/h 13.4 km/h 62% 0.0 mm 204 W/m2
18:11 23.5 °C 15.8 °C 1016.8 hPa NNW 5.0 km/h 14.8 km/h 62% 0.0 mm 205 W/m2
18:17 24.4 °C 16.2 °C 1016.5 hPa NNW 5.0 km/h 14.8 km/h 60% 0.0 mm 201 W/m2
18:23 25.0 °C 15.3 °C 1016.8 hPa North 9.7 km/h 15.8 km/h 55% 0.0 mm 206 W/m2
18:29 25.2 °C 14.9 °C 1016.5 hPa NNW 9.7 km/h 17.2 km/h 53% 0.0 mm 205 W/m2
18:35 24.8 °C 15.4 °C 1016.5 hPa NNW 6.1 km/h 17.2 km/h 56% 0.0 mm 218 W/m2
18:41 25.7 °C 16.0 °C 1016.8 hPa NNW 7.2 km/h 14.8 km/h 55% 0.0 mm 290 W/m2
18:47 26.3 °C 15.4 °C 1016.5 hPa North 8.7 km/h 13.4 km/h 51% 0.0 mm 332 W/m2
18:53 26.0 °C 15.1 °C 1016.5 hPa North 2.6 km/h 13.4 km/h 51% 0.0 mm 376 W/m2
18:59 25.8 °C 15.8 °C 1016.5 hPa NNW 3.5 km/h 13.4 km/h 54% 0.0 mm 346 W/m2
19:05 26.1 °C 15.8 °C 1016.5 hPa NNW 1.1 km/h 13.4 km/h 53% 0.0 mm 464 W/m2
19:11 26.9 °C 16.2 °C 1016.1 hPa NNW 7.2 km/h 13.4 km/h 52% 0.0 mm 594 W/m2
19:17 27.0 °C 16.0 °C 1016.1 hPa NNW 6.1 km/h 13.4 km/h 51% 0.0 mm 461 W/m2
19:23 26.8 °C 16.2 °C 1016.5 hPa NW 6.1 km/h 19.5 km/h 52% 0.0 mm 641 W/m2
19:29 27.2 °C 16.5 °C 1016.5 hPa NW 12.2 km/h 19.5 km/h 52% 0.0 mm 533 W/m2
19:35 27.5 °C 16.5 °C 1016.1 hPa NW 5.0 km/h 17.2 km/h 51% 0.0 mm 645 W/m2
19:41 27.5 °C 16.5 °C 1016.1 hPa NNW 8.7 km/h 18.3 km/h 51% 0.0 mm 452 W/m2
19:47 27.9 °C 16.8 °C 1016.1 hPa NW 7.2 km/h 18.3 km/h 51% 0.0 mm 392 W/m2
19:53 27.7 °C 16.3 °C 1016.1 hPa NW 14.8 km/h 24.5 km/h 50% 0.0 mm 547 W/m2
19:59 27.4 °C 15.8 °C 1016.1 hPa NNW 12.2 km/h 25.6 km/h 49% 0.0 mm 680 W/m2
20:05 27.6 °C 15.6 °C 1016.1 hPa NW 14.8 km/h 25.6 km/h 48% 0.0 mm 652 W/m2
20:11 27.4 °C 15.8 °C 1016.1 hPa NW 9.7 km/h 25.6 km/h 49% 0.0 mm 278 W/m2
20:17 27.4 °C 16.1 °C 1016.1 hPa NW 11.1 km/h 23.3 km/h 50% 0.0 mm 393 W/m2
20:23 27.7 °C 16.3 °C 1016.1 hPa NW 8.7 km/h 19.5 km/h 50% 0.0 mm 578 W/m2
20:29 28.1 °C 16.1 °C 1016.1 hPa NW 18.3 km/h 25.6 km/h 48% 0.0 mm 627 W/m2
20:35 28.0 °C 15.7 °C 1016.1 hPa NNW 11.1 km/h 28.0 km/h 47% 0.0 mm 636 W/m2
20:41 28.3 °C 16.3 °C 1016.1 hPa NW 11.1 km/h 27.0 km/h 48% 0.0 mm 624 W/m2
20:47 28.3 °C 16.3 °C 1016.1 hPa WNW 7.2 km/h 24.5 km/h 48% 0.0 mm 628 W/m2
20:53 28.5 °C 16.1 °C 1015.8 hPa WNW 7.2 km/h 24.5 km/h 47% 0.0 mm 622 W/m2
20:59 28.5 °C 16.4 °C 1015.8 hPa NW 9.7 km/h 24.5 km/h 48% 0.0 mm 571 W/m2
21:05 29.1 °C 16.7 °C 1015.8 hPa NNW 9.7 km/h 20.9 km/h 47% 0.0 mm 556 W/m2
21:11 28.8 °C 16.4 °C 1015.8 hPa NW 12.2 km/h 23.3 km/h 47% 0.0 mm 498 W/m2
21:17 28.8 °C 16.7 °C 1015.8 hPa NNW 12.2 km/h 23.3 km/h 48% 0.0 mm 506 W/m2
21:23 28.8 °C 16.7 °C 1015.5 hPa NW 13.4 km/h 23.3 km/h 48% 0.0 mm 344 W/m2
21:29 29.0 °C 16.6 °C 1015.8 hPa WNW 9.7 km/h 23.3 km/h 47% 0.0 mm 325 W/m2
21:35 28.9 °C 16.5 °C 1015.5 hPa NW 14.8 km/h 21.9 km/h 47% 0.0 mm 336 W/m2
21:41 28.5 °C 16.4 °C 1015.5 hPa NW 13.4 km/h 24.5 km/h 48% 0.0 mm 530 W/m2
21:47 28.5 °C 16.4 °C 1015.5 hPa NW 15.8 km/h 28.0 km/h 48% 0.0 mm 526 W/m2
21:53 28.5 °C 16.4 °C 1015.5 hPa NW 12.2 km/h 29.4 km/h 48% 0.0 mm 529 W/m2
21:59 28.5 °C 16.8 °C 1015.8 hPa NNW 11.1 km/h 29.4 km/h 49% 0.0 mm 464 W/m2
22:05 28.8 °C 17.1 °C 1015.5 hPa NNW 13.4 km/h 20.9 km/h 49% 0.0 mm 497 W/m2
22:11 28.5 °C 17.1 °C 1015.8 hPa NW 11.1 km/h 27.0 km/h 50% 0.0 mm 372 W/m2
22:17 28.9 °C 17.2 °C 1015.8 hPa NW 13.4 km/h 27.0 km/h 49% 0.0 mm 144 W/m2
22:23 28.4 °C 16.7 °C 1015.8 hPa WNW 12.2 km/h 25.6 km/h 49% 0.0 mm 74 W/m2
22:29 28.2 °C 16.5 °C 1015.5 hPa NW 15.8 km/h 25.6 km/h 49% 0.0 mm 69 W/m2
22:35 28.1 °C 16.4 °C 1015.5 hPa NW 15.8 km/h 30.6 km/h 49% 0.0 mm 68 W/m2
22:41 28.3 °C 16.6 °C 1015.5 hPa NNW 17.2 km/h 24.5 km/h 49% 0.0 mm 71 W/m2
22:47 28.5 °C 16.8 °C 1015.5 hPa NNW 9.7 km/h 23.3 km/h 49% 0.0 mm 71 W/m2
22:53 28.4 °C 17.0 °C 1015.5 hPa NNW 7.2 km/h 24.5 km/h 50% 0.0 mm 76 W/m2
22:59 28.5 °C 16.8 °C 1015.5 hPa NNW 9.7 km/h 24.5 km/h 49% 0.0 mm 86 W/m2
23:05 28.8 °C 17.4 °C 1015.1 hPa NW 13.4 km/h 23.3 km/h 50% 0.0 mm 248 W/m2
23:11 28.9 °C 17.2 °C 1015.1 hPa NNW 12.2 km/h 20.9 km/h 49% 0.0 mm 382 W/m2
23:17 29.1 °C 16.7 °C 1015.1 hPa NW 8.7 km/h 20.9 km/h 47% 0.0 mm 380 W/m2
23:23 28.6 °C 16.9 °C 1015.1 hPa NW 15.8 km/h 27.0 km/h 49% 0.0 mm 355 W/m2
23:29 28.8 °C 17.1 °C 1015.1 hPa NW 15.8 km/h 27.0 km/h 49% 0.0 mm 362 W/m2
23:35 28.6 °C 16.9 °C 1015.1 hPa NW 13.4 km/h 24.5 km/h 49% 0.0 mm 350 W/m2
23:41 28.5 °C 16.8 °C 1015.1 hPa NW 11.1 km/h 27.0 km/h 49% 0.0 mm 296 W/m2
23:47 28.3 °C 16.6 °C 1015.1 hPa NW 13.4 km/h 27.0 km/h 49% 0.0 mm 318 W/m2
23:53 28.5 °C 16.8 °C 1015.1 hPa NW 13.4 km/h 25.6 km/h 49% 0.0 mm 178 W/m2
23:59 28.0 °C 16.3 °C 1015.5 hPa NW 13.4 km/h 25.6 km/h 49% 0.0 mm 166 W/m2
Northern Hawkes Bay. New Zealand Historic Data
Compliments of Weather Underground - 2 mb